createdAt,value
2022-09-22T00:01:27.590Z,0.40
2022-09-22T00:03:58.579Z,0.30
2022-09-22T00:06:32.637Z,0.30
2022-09-22T00:09:01.721Z,0.30
2022-09-22T00:11:33.488Z,0.40
2022-09-22T00:14:08.608Z,0.40
2022-09-22T00:16:40.026Z,0.30
2022-09-22T00:19:09.270Z,0.40
2022-09-22T00:21:36.806Z,0.35
2022-09-22T00:24:07.860Z,0.40
2022-09-22T00:26:36.711Z,0.30
2022-09-22T00:29:09.771Z,0.40
2022-09-22T00:31:41.849Z,0.68
2022-09-22T00:34:15.028Z,0.30
2022-09-22T00:36:42.101Z,0.38
2022-09-22T00:39:09.269Z,0.40
2022-09-22T00:41:40.646Z,0.50
2022-09-22T00:44:26.389Z,0.43
2022-09-22T00:47:16.171Z,0.50
2022-09-22T00:50:18.093Z,0.32
2022-09-22T00:52:58.854Z,1.00
2022-09-22T00:55:46.440Z,0.50
2022-09-22T00:58:19.960Z,0.50
2022-09-22T01:00:47.331Z,0.60
2022-09-22T01:03:24.047Z,0.47
2022-09-22T01:05:58.716Z,0.38
2022-09-22T01:08:26.443Z,0.63
2022-09-22T01:10:55.298Z,0.57
2022-09-22T01:13:35.849Z,0.40
2022-09-22T01:16:42.547Z,0.40
2022-09-22T01:19:44.551Z,0.70
2022-09-22T01:22:20.306Z,0.40
2022-09-22T01:28:16.798Z,0.73
2022-09-22T01:31:06.631Z,0.40
2022-09-22T01:33:57.414Z,0.30
2022-09-22T01:36:34.245Z,0.40
2022-09-22T01:39:07.151Z,0.50
2022-09-22T01:42:07.250Z,0.65
2022-09-22T01:44:48.034Z,1.13
2022-09-22T01:47:44.137Z,0.95
2022-09-22T01:50:20.750Z,0.80
2022-09-22T01:52:49.493Z,0.40
2022-09-22T01:55:30.473Z,0.40
2022-09-22T01:58:35.891Z,0.40
2022-09-22T02:01:28.804Z,0.50
2022-09-22T02:04:18.785Z,0.47
2022-09-22T02:07:01.178Z,0.50
2022-09-22T02:09:31.062Z,0.45
2022-09-22T02:11:59.282Z,0.50
2022-09-22T02:14:26.889Z,0.65
2022-09-22T02:16:54.687Z,0.47
2022-09-22T02:19:29.362Z,0.45
2022-09-22T02:21:56.408Z,0.40
2022-09-22T02:24:44.494Z,0.40
2022-09-22T02:27:26.304Z,0.32
2022-09-22T02:30:09.060Z,0.77
2022-09-22T02:32:41.594Z,0.50
2022-09-22T02:35:09.995Z,0.60
2022-09-22T02:37:50.641Z,0.43
2022-09-22T02:41:03.069Z,0.80
2022-09-22T02:43:42.167Z,0.60
2022-09-22T02:46:23.895Z,0.70
2022-09-22T02:48:56.288Z,0.55
2022-09-22T02:51:23.638Z,0.50
2022-09-22T02:53:50.668Z,0.73
2022-09-22T02:56:17.642Z,0.65
2022-09-22T02:58:44.564Z,2.05
2022-09-22T03:01:11.553Z,1.00
2022-09-22T03:03:38.466Z,0.63
2022-09-22T03:06:05.651Z,0.73
2022-09-22T03:08:32.586Z,0.60
2022-09-22T03:10:59.903Z,0.60
2022-09-22T03:13:26.862Z,0.60
2022-09-22T03:15:54.038Z,0.50
2022-09-22T03:18:20.926Z,0.80
2022-09-22T03:20:47.922Z,1.33
2022-09-22T03:23:15.062Z,0.50
2022-09-22T03:25:41.921Z,0.75
2022-09-22T03:28:08.995Z,0.90
2022-09-22T03:30:37.310Z,0.80
2022-09-22T03:33:04.365Z,1.23
2022-09-22T03:35:31.506Z,0.63
2022-09-22T03:37:58.402Z,0.80
2022-09-22T03:40:25.521Z,0.98
2022-09-22T03:42:52.705Z,0.60
2022-09-22T03:45:19.653Z,0.75
2022-09-22T03:47:46.626Z,0.80
2022-09-22T03:50:14.278Z,1.23
2022-09-22T03:52:43.904Z,0.80
2022-09-22T03:55:11.492Z,1.25
2022-09-22T03:57:39.834Z,1.00
2022-09-22T04:00:08.097Z,1.00
2022-09-22T04:02:41.879Z,0.85
2022-09-22T04:05:10.102Z,1.00
2022-09-22T04:07:37.603Z,0.90
2022-09-22T04:10:05.126Z,0.73
2022-09-22T04:12:32.014Z,0.98
2022-09-22T04:14:58.871Z,0.80
2022-09-22T04:17:26.091Z,0.60
2022-09-22T04:19:55.283Z,0.70
2022-09-22T04:22:22.529Z,0.90
2022-09-22T04:24:49.888Z,0.70
2022-09-22T04:27:20.842Z,0.90
2022-09-22T04:29:48.927Z,0.80
2022-09-22T04:32:17.206Z,0.52
2022-09-22T04:34:44.471Z,0.70
2022-09-22T04:37:12.275Z,0.70
2022-09-22T04:39:39.445Z,1.15
2022-09-22T04:42:09.124Z,0.73
2022-09-22T04:44:36.135Z,1.02
2022-09-22T04:47:04.693Z,0.90
2022-09-22T04:49:31.667Z,1.20
2022-09-22T04:51:59.110Z,1.23
2022-09-22T04:54:26.242Z,0.90
2022-09-22T04:56:53.225Z,1.25
2022-09-22T04:59:20.558Z,1.15
2022-09-22T05:01:47.552Z,1.05
2022-09-22T05:04:14.598Z,0.80
2022-09-22T05:06:42.263Z,0.75
2022-09-22T05:09:09.213Z,0.88
2022-09-22T05:11:36.437Z,0.88
2022-09-22T05:14:03.551Z,0.80
2022-09-22T05:16:31.366Z,1.05
2022-09-22T05:18:58.597Z,0.98
2022-09-22T05:21:25.500Z,1.02
2022-09-22T05:23:52.490Z,2.15
2022-09-22T05:26:19.399Z,1.00
2022-09-22T05:28:46.282Z,1.05
2022-09-22T05:31:13.219Z,0.80
2022-09-22T05:33:40.236Z,1.00
2022-09-22T05:36:07.164Z,0.85
2022-09-22T05:38:34.390Z,1.00
2022-09-22T05:41:02.079Z,1.27
2022-09-22T05:43:29.249Z,0.85
2022-09-22T05:45:56.323Z,1.08
2022-09-22T05:48:26.414Z,1.25
2022-09-22T05:50:55.793Z,0.93
2022-09-22T05:53:22.748Z,1.10
2022-09-22T05:55:49.789Z,0.85
2022-09-22T05:58:16.769Z,1.10
2022-09-22T06:00:43.711Z,0.93
2022-09-22T06:03:11.414Z,1.27
2022-09-22T06:05:39.592Z,1.10
2022-09-22T06:08:06.737Z,0.70
2022-09-22T06:10:36.499Z,1.23
2022-09-22T06:13:10.089Z,1.00
2022-09-22T06:15:37.639Z,1.13
2022-09-22T06:18:11.847Z,0.85
2022-09-22T06:20:42.838Z,0.95
2022-09-22T06:23:10.553Z,1.08
2022-09-22T06:25:37.440Z,1.20
2022-09-22T06:28:10.717Z,1.50
2022-09-22T06:30:41.329Z,1.20
2022-09-22T06:33:09.990Z,1.20
2022-09-22T06:35:37.725Z,1.23
2022-09-22T06:38:06.847Z,1.40
2022-09-22T06:40:38.332Z,1.40
2022-09-22T06:43:11.078Z,1.70
2022-09-22T06:45:40.174Z,1.20
2022-09-22T06:48:10.142Z,1.40
2022-09-22T06:50:40.990Z,1.83
2022-09-22T06:53:11.622Z,2.10
2022-09-22T06:55:41.571Z,1.90
2022-09-22T06:58:09.813Z,1.88
2022-09-22T07:00:37.231Z,2.30
2022-09-22T07:03:13.588Z,2.53
2022-09-22T07:05:40.579Z,2.95
2022-09-22T07:08:09.133Z,2.63
2022-09-22T07:13:17.738Z,2.97
2022-09-22T07:15:45.031Z,2.45
2022-09-22T07:18:11.918Z,3.45
2022-09-22T07:20:38.850Z,3.35
2022-09-22T07:23:11.918Z,2.97
2022-09-22T07:25:38.824Z,3.45
2022-09-22T07:28:05.822Z,3.92
2022-09-22T07:30:38.105Z,4.57
2022-09-22T07:33:05.791Z,5.55
2022-09-22T07:35:35.985Z,9.38
2022-09-22T07:38:04.187Z,10.27
2022-09-22T07:40:32.538Z,8.95
2022-09-22T07:42:59.552Z,10.70
2022-09-22T07:45:26.536Z,8.93
2022-09-22T07:48:12.037Z,8.80
2022-09-22T07:50:39.062Z,8.18
2022-09-22T07:53:06.039Z,7.82
2022-09-22T07:55:36.767Z,7.50
2022-09-22T07:58:03.689Z,6.38
2022-09-22T08:00:34.477Z,6.35
2022-09-22T08:03:01.626Z,6.10
2022-09-22T08:05:29.909Z,6.72
2022-09-22T08:08:02.285Z,6.68
2022-09-22T08:10:29.668Z,7.70
2022-09-22T08:12:58.164Z,5.88
2022-09-22T08:15:27.551Z,6.85
2022-09-22T08:17:58.409Z,5.90
2022-09-22T08:20:30.256Z,6.60
2022-09-22T08:22:58.172Z,6.80
2022-09-22T08:25:25.444Z,6.22
2022-09-22T08:27:52.388Z,6.38
2022-09-22T08:30:19.694Z,5.60
2022-09-22T08:32:47.726Z,6.43
2022-09-22T08:35:14.834Z,6.38
2022-09-22T08:37:42.350Z,6.82
2022-09-22T08:40:19.331Z,6.95
2022-09-22T08:42:46.878Z,5.57
2022-09-22T08:45:36.971Z,6.10
2022-09-22T08:48:38.947Z,6.03
2022-09-22T08:51:33.901Z,6.82
2022-09-22T08:54:03.475Z,4.85
2022-09-22T08:56:43.384Z,5.78
2022-09-22T08:59:23.135Z,5.30
2022-09-22T09:02:25.456Z,4.20
2022-09-22T09:05:01.224Z,3.92
2022-09-22T09:07:58.044Z,4.65
2022-09-22T09:10:57.201Z,4.32
2022-09-22T09:13:42.110Z,4.53
2022-09-22T09:16:48.160Z,4.00
2022-09-22T09:19:32.179Z,3.93
2022-09-22T09:22:05.122Z,3.80
2022-09-22T09:27:29.574Z,2.88
2022-09-22T09:30:10.709Z,3.00
2022-09-22T09:32:50.251Z,2.90
2022-09-22T09:35:24.730Z,2.90
2022-09-22T09:37:55.502Z,3.80
2022-09-22T09:40:25.723Z,3.08
2022-09-22T09:43:04.819Z,2.72
2022-09-22T09:46:00.528Z,2.95
2022-09-22T09:49:15.256Z,2.60
2022-09-22T09:51:47.549Z,2.67
2022-09-22T09:54:18.033Z,3.03
2022-09-22T09:57:09.547Z,3.08
2022-09-22T10:00:06.589Z,2.00
2022-09-22T10:02:51.040Z,1.70
2022-09-22T10:05:17.827Z,1.90
2022-09-22T10:07:53.053Z,1.02
2022-09-22T10:10:38.235Z,1.90
2022-09-22T10:13:05.116Z,1.63
2022-09-22T10:15:38.436Z,1.55
2022-09-22T10:18:23.940Z,1.40
2022-09-22T10:21:20.680Z,1.80
2022-09-22T10:23:59.465Z,1.55
2022-09-22T10:26:27.627Z,2.03
2022-09-22T10:29:18.503Z,1.85
2022-09-22T10:32:17.271Z,1.10
2022-09-22T10:34:48.054Z,1.02
2022-09-22T10:37:21.051Z,0.88
2022-09-22T10:39:51.898Z,0.70
2022-09-22T10:42:28.758Z,1.15
2022-09-22T10:45:04.028Z,0.90
2022-09-22T10:47:42.752Z,1.10
2022-09-22T10:50:44.500Z,1.10
2022-09-22T10:53:35.877Z,0.85
2022-09-22T10:56:14.213Z,1.10
2022-09-22T10:58:52.035Z,1.15
2022-09-22T11:01:51.488Z,1.63
2022-09-22T11:04:46.269Z,0.98
2022-09-22T11:08:17.510Z,1.55
2022-09-22T11:11:32.645Z,1.00
2022-09-22T11:14:55.673Z,1.35
2022-09-22T11:18:15.831Z,1.20
2022-09-22T11:21:01.200Z,1.38
2022-09-22T11:24:05.972Z,1.83
2022-09-22T11:26:59.013Z,1.20
2022-09-22T11:29:50.365Z,1.20
2022-09-22T11:32:17.184Z,0.93
2022-09-22T11:34:55.980Z,1.40
2022-09-22T11:37:38.342Z,1.00
2022-09-22T11:40:27.279Z,0.95
2022-09-22T11:43:15.862Z,1.08
2022-09-22T11:45:59.873Z,0.90
2022-09-22T11:48:55.263Z,0.80
2022-09-22T11:52:11.734Z,0.45
2022-09-22T11:55:07.253Z,1.45
2022-09-22T11:57:39.977Z,0.90
2022-09-22T12:00:20.169Z,1.15
2022-09-22T12:03:01.907Z,1.00
2022-09-22T12:05:44.835Z,0.90
2022-09-22T12:08:14.565Z,2.03
2022-09-22T12:10:44.929Z,0.80
2022-09-22T12:13:34.899Z,0.82
2022-09-22T12:16:23.367Z,0.93
2022-09-22T12:18:58.749Z,0.98
2022-09-22T12:21:53.124Z,0.90
2022-09-22T12:24:20.508Z,1.08
2022-09-22T12:26:49.584Z,1.45
2022-09-22T12:29:16.564Z,1.70
2022-09-22T12:31:48.547Z,1.65
2022-09-22T12:34:41.769Z,0.95
2022-09-22T12:37:13.003Z,0.82
2022-09-22T12:39:47.146Z,0.85
2022-09-22T12:42:22.354Z,0.75
2022-09-22T12:44:58.676Z,0.50
2022-09-22T12:47:38.697Z,1.05
2022-09-22T12:50:40.968Z,0.85
2022-09-22T12:53:21.788Z,0.60
2022-09-22T12:55:50.594Z,0.88
2022-09-22T12:58:26.121Z,0.98
2022-09-22T13:03:25.918Z,1.27
2022-09-22T13:06:03.462Z,1.05
2022-09-22T13:08:33.154Z,1.17
2022-09-22T13:11:07.780Z,0.98
2022-09-22T13:13:50.514Z,0.87
2022-09-22T13:16:17.990Z,1.20
2022-09-22T13:18:58.822Z,0.90
2022-09-22T13:21:32.501Z,1.20
2022-09-22T13:24:04.980Z,1.25
2022-09-22T13:26:41.157Z,1.45
2022-09-22T13:29:21.958Z,0.80
2022-09-22T13:31:57.888Z,1.00
2022-09-22T13:34:30.258Z,1.10
2022-09-22T13:37:03.445Z,0.85
2022-09-22T13:39:46.398Z,0.90
2022-09-22T13:42:34.169Z,1.58
2022-09-22T13:45:18.563Z,1.23
2022-09-22T13:47:47.733Z,0.90
2022-09-22T13:50:22.582Z,0.50
2022-09-22T13:52:51.519Z,0.80
2022-09-22T13:55:30.652Z,0.90
2022-09-22T13:58:01.284Z,1.08
2022-09-22T14:00:49.807Z,0.60
2022-09-22T14:03:22.423Z,1.20
2022-09-22T14:05:53.891Z,1.13
2022-09-22T14:08:32.264Z,1.20
2022-09-22T14:11:00.202Z,0.80
2022-09-22T14:13:58.794Z,1.55
2022-09-22T14:16:56.668Z,1.13
2022-09-22T14:19:43.508Z,0.80
2022-09-22T14:22:33.242Z,0.60
2022-09-22T14:25:03.948Z,1.00
2022-09-22T14:27:49.567Z,1.27
2022-09-22T14:30:19.122Z,1.30
2022-09-22T14:32:57.610Z,0.63
2022-09-22T14:35:30.609Z,1.05
2022-09-22T14:38:10.465Z,1.10
2022-09-22T14:40:55.485Z,1.08
2022-09-22T14:43:27.634Z,1.00
2022-09-22T14:46:09.242Z,0.63
2022-09-22T14:48:36.942Z,1.00
2022-09-22T14:51:08.393Z,1.75
2022-09-22T14:53:53.820Z,1.77
2022-09-22T14:56:28.418Z,1.05
2022-09-22T14:58:59.343Z,2.03
2022-09-22T15:01:50.961Z,1.20
2022-09-22T15:04:27.840Z,1.30
2022-09-22T15:06:57.577Z,1.20
2022-09-22T15:09:32.181Z,1.13
2022-09-22T15:12:02.407Z,1.27
2022-09-22T15:14:36.905Z,1.13
2022-09-22T15:17:24.197Z,1.45
2022-09-22T15:19:53.837Z,1.00
2022-09-22T15:22:20.860Z,1.60
2022-09-22T15:24:49.644Z,0.80
2022-09-22T15:27:17.902Z,1.67
2022-09-22T15:29:46.159Z,0.80
2022-09-22T15:32:13.377Z,1.15
2022-09-22T15:34:44.710Z,0.93
2022-09-22T15:37:19.846Z,1.38
2022-09-22T15:39:46.872Z,1.02
2022-09-22T15:42:14.170Z,1.02
2022-09-22T15:44:41.258Z,1.30
2022-09-22T15:47:16.616Z,1.15
2022-09-22T15:49:45.068Z,1.02
2022-09-22T15:52:12.374Z,1.17
2022-09-22T15:54:39.297Z,1.05
2022-09-22T15:57:06.472Z,0.80
2022-09-22T15:59:35.194Z,0.57
2022-09-22T16:02:02.953Z,1.30
2022-09-22T16:04:31.497Z,1.10
2022-09-22T16:07:12.419Z,0.80
2022-09-22T16:09:40.109Z,1.20
2022-09-22T16:12:10.953Z,2.00
2022-09-22T16:14:39.591Z,1.20
2022-09-22T16:17:07.703Z,0.90
2022-09-22T16:19:35.312Z,0.93
2022-09-22T16:22:02.815Z,1.50
2022-09-22T16:24:29.889Z,1.35
2022-09-22T16:26:56.798Z,1.00
2022-09-22T16:29:25.017Z,1.15
2022-09-22T16:31:51.968Z,1.92
2022-09-22T16:34:19.055Z,1.65
2022-09-22T16:36:46.308Z,1.83
2022-09-22T16:39:13.187Z,1.33
2022-09-22T16:41:45.540Z,1.02
2022-09-22T16:44:12.998Z,1.13
2022-09-22T16:46:39.910Z,1.20
2022-09-22T16:49:12.129Z,0.98
2022-09-22T16:51:44.812Z,1.55
2022-09-22T16:54:13.782Z,1.17
2022-09-22T16:56:46.218Z,1.30
2022-09-22T16:59:21.984Z,1.30
2022-09-22T17:01:50.139Z,0.82
2022-09-22T17:04:19.421Z,0.80
2022-09-22T17:06:47.673Z,0.80
2022-09-22T17:09:15.456Z,1.20
2022-09-22T17:11:45.518Z,0.68
2022-09-22T17:14:22.342Z,0.98
2022-09-22T17:16:52.391Z,0.93
2022-09-22T17:19:26.252Z,1.00
2022-09-22T17:21:55.435Z,0.50
2022-09-22T17:24:24.534Z,0.55
2022-09-22T17:26:56.830Z,0.75
2022-09-22T17:29:31.698Z,0.68
2022-09-22T17:32:08.348Z,0.60
2022-09-22T17:34:36.917Z,0.90
2022-09-22T17:37:04.688Z,0.80
2022-09-22T17:39:32.154Z,0.70
2022-09-22T17:41:59.502Z,1.10
2022-09-22T17:44:28.505Z,0.60
2022-09-22T17:47:14.424Z,1.15
2022-09-22T17:50:00.223Z,1.17
2022-09-22T17:52:33.503Z,1.77
2022-09-22T17:55:07.455Z,1.10
2022-09-22T17:57:40.973Z,0.80
2022-09-22T18:00:15.761Z,0.93
2022-09-22T18:02:43.094Z,0.70
2022-09-22T18:05:13.542Z,1.10
2022-09-22T18:07:42.994Z,0.73
2022-09-22T18:10:14.266Z,0.93
2022-09-22T18:12:42.336Z,0.77
2022-09-22T18:15:13.173Z,1.00
2022-09-22T18:17:42.859Z,0.70
2022-09-22T18:20:18.274Z,1.00
2022-09-22T18:22:49.946Z,0.63
2022-09-22T18:25:19.562Z,1.05
2022-09-22T18:27:48.473Z,0.70
2022-09-22T18:30:19.381Z,1.48
2022-09-22T18:32:48.098Z,0.95
2022-09-22T18:35:15.905Z,0.98
2022-09-22T18:37:43.017Z,1.02
2022-09-22T18:40:12.328Z,0.73
2022-09-22T18:42:41.448Z,0.70
2022-09-22T18:45:11.103Z,0.90
2022-09-22T18:47:41.166Z,0.88
2022-09-22T18:50:09.734Z,1.20
2022-09-22T18:52:37.479Z,2.05
2022-09-22T18:55:05.247Z,1.17
2022-09-22T18:57:32.392Z,0.95
2022-09-22T19:00:01.659Z,0.90
2022-09-22T19:02:29.014Z,0.88
2022-09-22T19:04:56.174Z,0.88
2022-09-22T19:07:42.044Z,1.00
2022-09-22T19:10:22.512Z,1.20
2022-09-22T19:12:49.696Z,0.85
2022-09-22T19:15:19.035Z,0.80
2022-09-22T19:17:49.387Z,0.77
2022-09-22T19:20:22.431Z,1.13
2022-09-22T19:22:52.976Z,0.90
2022-09-22T19:25:22.003Z,0.90
2022-09-22T19:27:52.285Z,0.85
2022-09-22T19:30:22.830Z,0.98
2022-09-22T19:32:51.661Z,0.68
2022-09-22T19:35:19.497Z,0.80
2022-09-22T19:37:46.901Z,1.13
2022-09-22T19:40:18.540Z,0.90
2022-09-22T19:42:46.835Z,0.82
2022-09-22T19:45:13.853Z,0.80
2022-09-22T19:47:40.794Z,0.63
2022-09-22T19:50:09.059Z,0.90
2022-09-22T19:52:36.623Z,1.52
2022-09-22T19:55:08.187Z,0.82
2022-09-22T19:57:41.481Z,0.90
2022-09-22T20:00:18.196Z,0.90
2022-09-22T20:02:45.716Z,0.77
2022-09-22T20:05:22.269Z,0.80
2022-09-22T20:07:49.626Z,1.20
2022-09-22T20:10:19.188Z,0.95
2022-09-22T20:12:46.564Z,0.95
2022-09-22T20:15:15.136Z,1.00
2022-09-22T20:17:47.630Z,1.30
2022-09-22T20:20:18.092Z,1.33
2022-09-22T20:22:46.705Z,1.20
2022-09-22T20:25:25.621Z,1.08
2022-09-22T20:27:52.593Z,1.35
2022-09-22T20:30:19.740Z,1.40
2022-09-22T20:32:47.433Z,1.73
2022-09-22T20:35:17.922Z,1.40
2022-09-22T20:37:45.462Z,2.97
2022-09-22T20:40:21.458Z,2.40
2022-09-22T20:42:49.226Z,2.13
2022-09-22T20:45:20.937Z,1.27
2022-09-22T20:47:48.096Z,1.63
2022-09-22T20:50:15.341Z,1.73
2022-09-22T20:52:45.213Z,1.90
2022-09-22T20:55:12.285Z,1.10
2022-09-22T20:57:40.209Z,1.38
2022-09-22T21:00:08.602Z,1.52
2022-09-22T21:02:35.837Z,1.50
2022-09-22T21:05:02.892Z,1.10
2022-09-22T21:07:32.490Z,1.05
2022-09-22T21:10:18.128Z,1.35
2022-09-22T21:12:45.139Z,1.55
2022-09-22T21:15:12.334Z,1.05
2022-09-22T21:17:44.045Z,1.23
2022-09-22T21:20:11.129Z,1.40
2022-09-22T21:22:37.971Z,1.30
2022-09-22T21:25:05.429Z,0.90
2022-09-22T21:27:32.359Z,1.00
2022-09-22T21:29:59.321Z,1.25
2022-09-22T21:32:28.461Z,1.00
2022-09-22T21:34:57.477Z,0.85
2022-09-22T21:37:24.998Z,1.25
2022-09-22T21:39:51.957Z,0.73
2022-09-22T21:42:19.522Z,1.00
2022-09-22T21:44:48.607Z,1.00
2022-09-22T21:47:15.664Z,0.93
2022-09-22T21:49:42.523Z,0.98
2022-09-22T21:52:10.153Z,1.50
2022-09-22T21:54:37.048Z,1.75
2022-09-22T21:57:04.103Z,2.20
2022-09-22T21:59:31.239Z,2.33
2022-09-22T22:01:58.198Z,2.33
2022-09-22T22:04:25.251Z,1.27
2022-09-22T22:06:52.279Z,1.30
2022-09-22T22:09:24.263Z,1.65
2022-09-22T22:11:57.269Z,1.50
2022-09-22T22:14:26.450Z,1.30
2022-09-22T22:16:55.141Z,1.48
2022-09-22T22:19:25.816Z,1.60
2022-09-22T22:21:53.887Z,1.10
2022-09-22T22:24:39.375Z,1.27
2022-09-22T22:27:10.348Z,1.23
2022-09-22T22:29:41.376Z,1.17
2022-09-22T22:32:10.649Z,1.75
2022-09-22T22:34:38.096Z,1.30
2022-09-22T22:37:08.796Z,2.17
2022-09-22T22:39:35.766Z,1.40
2022-09-22T22:42:02.630Z,2.13
2022-09-22T22:44:29.483Z,1.85
2022-09-22T22:46:56.381Z,1.42
2022-09-22T22:49:23.275Z,1.55
2022-09-22T22:51:52.328Z,1.75
2022-09-22T22:54:19.217Z,1.30
2022-09-22T22:56:50.341Z,1.48
2022-09-22T22:59:18.680Z,1.48
2022-09-22T23:01:45.605Z,1.40
2022-09-22T23:04:12.727Z,1.33
2022-09-22T23:06:43.943Z,1.08
2022-09-22T23:09:14.864Z,1.10
2022-09-22T23:11:42.926Z,1.00
2022-09-22T23:14:12.779Z,1.20
2022-09-22T23:16:46.073Z,1.20
2022-09-22T23:19:17.945Z,1.30
2022-09-22T23:21:46.010Z,1.00
2022-09-22T23:24:19.202Z,1.30
2022-09-22T23:26:47.112Z,1.30
2022-09-22T23:29:14.582Z,1.20
2022-09-22T23:31:41.922Z,1.40
2022-09-22T23:34:08.957Z,1.65
2022-09-22T23:36:36.138Z,1.63
2022-09-22T23:39:04.390Z,1.30
2022-09-22T23:41:33.441Z,1.30
2022-09-22T23:44:00.852Z,1.50
2022-09-22T23:46:27.932Z,1.10
2022-09-22T23:48:55.575Z,1.20
2022-09-22T23:51:23.213Z,1.10
2022-09-22T23:53:50.076Z,1.55
2022-09-22T23:56:17.212Z,0.90
2022-09-22T23:58:45.328Z,1.40
